Time;durP1;ratioP1;P1;durP2;ratioP2;P2;SDS_P1;SDS_P2;PMS_P1;PMS_P2;Temp;Humidity;BMP_temperature;BMP_pressure;BME280_temperature;BME280_humidity;BME280_pressure;Samples;Min_cycle;Max_cycle;Signal;HPM_P1;HPM_P2
2023/08/17 00:01:11;;;;;;;3.78;1.83;;;;;;;;;;5009458;28;98695;-70
2023/08/17 00:03:38;;;;;;;4.45;2.13;;;;;;;;;;5004047;28;99168;-71
2023/08/17 00:06:04;;;;;;;3.03;1.98;;;;;;;;;;4988896;28;98321;-71
2023/08/17 00:08:31;;;;;;;4.88;1.85;;;;;;;;;;4988772;28;99660;-70
2023/08/17 00:10:57;;;;;;;3.25;2.00;;;;;;;;;;4994011;28;100015;-70
2023/08/17 00:13:24;;;;;;;2.63;1.63;;;;;;;;;;4991805;28;98326;-70
2023/08/17 00:15:50;;;;;;;4.95;2.03;;;;;;;;;;4989668;28;100022;-70
2023/08/17 00:18:17;;;;;;;2.53;1.75;;;;;;;;;;4987565;28;98556;-69
2023/08/17 00:20:44;;;;;;;5.40;1.80;;;;;;;;;;4989469;28;98336;-71
2023/08/17 00:23:10;;;;;;;5.70;2.38;;;;;;;;;;4988633;28;99581;-71
2023/08/17 00:25:37;;;;;;;2.33;2.00;;;;;;;;;;4988007;28;98299;-70
2023/08/17 00:28:03;;;;;;;6.40;2.22;;;;;;;;;;5004883;28;98740;-70
2023/08/17 00:30:30;;;;;;;9.57;2.15;;;;;;;;;;5008278;28;100001;-71
2023/08/17 00:32:57;;;;;;;4.85;1.92;;;;;;;;;;5008667;28;98224;-70
2023/08/17 00:35:25;;;;;;;8.75;2.17;;;;;;;;;;5012406;28;98708;-70
2023/08/17 00:37:52;;;;;;;6.97;2.15;;;;;;;;;;5009443;28;98150;-70
2023/08/17 00:40:19;;;;;;;2.80;1.98;;;;;;;;;;5008076;28;98265;-70
2023/08/17 00:42:46;;;;;;;4.07;1.65;;;;;;;;;;5007839;28;99845;-70
2023/08/17 00:45:17;;;;;;;5.28;1.73;;;;;;;;;;5007777;28;98273;-70
2023/08/17 00:47:44;;;;;;;2.38;1.50;;;;;;;;;;5008256;28;98538;-70
2023/08/17 00:50:11;;;;;;;6.10;2.10;;;;;;;;;;4995729;28;98917;-70
2023/08/17 00:52:38;;;;;;;3.08;1.75;;;;;;;;;;4988925;28;98200;-70
2023/08/17 00:55:06;;;;;;;4.25;1.95;;;;;;;;;;4988348;28;98574;-69
2023/08/17 00:57:33;;;;;;;4.60;1.92;;;;;;;;;;4990354;28;101801;-70
2023/08/17 01:00:00;;;;;;;7.57;2.25;;;;;;;;;;4988026;28;100321;-70
2023/08/17 01:02:36;;;;;;;5.78;1.83;;;;;;;;;;5008149;28;100384;-70
2023/08/17 01:05:03;;;;;;;7.45;2.30;;;;;;;;;;5009184;28;98182;-71
2023/08/17 01:07:29;;;;;;;8.20;2.13;;;;;;;;;;5007771;28;98493;-70
2023/08/17 01:09:56;;;;;;;8.50;1.85;;;;;;;;;;5008929;28;99184;-71
2023/08/17 01:12:26;;;;;;;6.30;2.50;;;;;;;;;;4994244;28;98430;-71
2023/08/17 01:15:03;;;;;;;4.45;1.80;;;;;;;;;;4987195;28;98641;-70
2023/08/17 01:17:35;;;;;;;6.38;1.90;;;;;;;;;;4988722;28;99928;-70
2023/08/17 01:20:04;;;;;;;4.72;2.80;;;;;;;;;;4992195;28;98110;-70
2023/08/17 01:22:33;;;;;;;6.13;2.60;;;;;;;;;;4987600;28;98989;-70
2023/08/17 01:25:00;;;;;;;6.05;2.30;;;;;;;;;;4988951;28;98258;-70
2023/08/17 01:27:32;;;;;;;4.25;2.70;;;;;;;;;;4988544;28;98355;-71
2023/08/17 01:29:59;;;;;;;2.28;1.77;;;;;;;;;;4986602;28;101110;-70
2023/08/17 01:32:45;;;;;;;1.90;1.70;;;;;;;;;;4987528;28;97900;-71
2023/08/17 01:35:32;;;;;;;4.65;1.80;;;;;;;;;;4988897;28;98501;-70
2023/08/17 01:37:59;;;;;;;3.05;2.00;;;;;;;;;;4965045;28;100522;-71
2023/08/17 01:40:31;;;;;;;10.18;2.55;;;;;;;;;;4972037;28;98256;-70
2023/08/17 01:42:58;;;;;;;;;;;;;;;;;;4970105;28;101556;-70
2023/08/17 01:45:25;;;;;;;6.07;2.00;;;;;;;;;;4970961;28;111054;-70
2023/08/17 01:47:51;;;;;;;4.93;2.38;;;;;;;;;;4970336;28;100503;-70
2023/08/17 01:50:18;;;;;;;6.13;2.00;;;;;;;;;;4970690;28;98796;-70
2023/08/17 01:52:44;;;;;;;5.95;2.67;;;;;;;;;;4985947;28;98255;-71
2023/08/17 01:55:10;;;;;;;3.10;1.90;;;;;;;;;;4991966;28;98479;-70
2023/08/17 01:57:37;;;;;;;2.33;2.05;;;;;;;;;;4989963;28;99931;-71
2023/08/17 02:00:05;;;;;;;3.97;2.63;;;;;;;;;;4990264;28;98250;-70
2023/08/17 02:02:39;;;;;;;5.38;2.58;;;;;;;;;;4993285;28;98124;-70
2023/08/17 02:05:06;;;;;;;6.25;2.40;;;;;;;;;;4989942;28;100868;-70
2023/08/17 02:07:32;;;;;;;4.07;2.60;;;;;;;;;;4989929;28;101317;-71
2023/08/17 02:09:59;;;;;;;5.47;2.30;;;;;;;;;;4991062;28;98669;-71
2023/08/17 02:12:25;;;;;;;4.40;2.60;;;;;;;;;;4990407;28;98182;-70
2023/08/17 02:14:53;;;;;;;2.30;2.05;;;;;;;;;;4990209;28;100436;-71
2023/08/17 02:17:22;;;;;;;3.63;2.42;;;;;;;;;;4990925;28;98925;-71
2023/08/17 02:19:49;;;;;;;4.90;2.20;;;;;;;;;;4990551;28;98510;-70
2023/08/17 02:22:15;;;;;;;4.00;2.33;;;;;;;;;;4988873;28;100949;-69
2023/08/17 02:24:43;;;;;;;3.70;2.20;;;;;;;;;;4993162;28;101112;-70
2023/08/17 02:27:10;;;;;;;6.85;2.63;;;;;;;;;;4991088;28;99516;-70
2023/08/17 02:29:36;;;;;;;3.95;2.53;;;;;;;;;;4989431;28;101121;-70
2023/08/17 02:32:04;;;;;;;7.78;2.70;;;;;;;;;;4990433;28;98146;-70
2023/08/17 02:34:30;;;;;;;5.95;3.13;;;;;;;;;;4990908;28;98320;-71
2023/08/17 02:36:56;;;;;;;5.22;2.30;;;;;;;;;;4989053;28;101601;-71
2023/08/17 02:39:23;;;;;;;4.53;2.28;;;;;;;;;;4990184;28;98176;-70
2023/08/17 02:41:50;;;;;;;5.45;2.38;;;;;;;;;;4989793;28;99744;-71
2023/08/17 02:44:16;;;;;;;5.38;2.60;;;;;;;;;;5008619;28;99115;-69
2023/08/17 02:46:42;;;;;;;8.45;3.25;;;;;;;;;;5012687;28;98286;-71
2023/08/17 02:49:09;;;;;;;4.28;2.40;;;;;;;;;;5009344;28;100033;-70
2023/08/17 02:51:35;;;;;;;9.23;2.78;;;;;;;;;;5009833;28;98787;-71
2023/08/17 02:54:02;;;;;;;7.97;3.55;;;;;;;;;;5009623;28;98265;-70
2023/08/17 02:56:29;;;;;;;2.30;2.10;;;;;;;;;;5008577;28;100632;-71
2023/08/17 02:58:55;;;;;;;4.07;2.92;;;;;;;;;;5009368;28;98263;-70
2023/08/17 03:01:21;;;;;;;7.20;3.20;;;;;;;;;;4997671;28;98520;-71
2023/08/17 03:03:48;;;;;;;5.82;2.60;;;;;;;;;;4990360;28;98929;-70
2023/08/17 03:06:14;;;;;;;5.82;2.20;;;;;;;;;;4990002;28;98257;-70
2023/08/17 03:08:41;;;;;;;5.55;2.50;;;;;;;;;;4991781;28;99059;-70
2023/08/17 03:11:10;;;;;;;7.55;2.45;;;;;;;;;;4988215;28;98321;-70
2023/08/17 03:13:36;;;;;;;5.68;2.88;;;;;;;;;;4989426;28;98617;-70
2023/08/17 03:16:03;;;;;;;2.17;1.88;;;;;;;;;;4989164;28;99271;-71
2023/08/17 03:18:30;;;;;;;2.60;2.25;;;;;;;;;;5008050;28;98316;-69
2023/08/17 03:20:56;;;;;;;6.68;2.33;;;;;;;;;;5010389;28;98407;-69
2023/08/17 03:23:23;;;;;;;3.83;2.33;;;;;;;;;;5007607;28;99925;-71
2023/08/17 03:25:51;;;;;;;3.85;2.20;;;;;;;;;;5000326;28;98338;-70
2023/08/17 03:28:18;;;;;;;6.03;2.13;;;;;;;;;;4988279;28;99487;-71
2023/08/17 03:30:45;;;;;;;5.13;1.92;;;;;;;;;;4992046;28;101004;-70
2023/08/17 03:33:12;;;;;;;6.68;1.65;;;;;;;;;;4989331;28;101354;-69
2023/08/17 03:35:38;;;;;;;8.32;2.30;;;;;;;;;;5006488;28;99643;-70
2023/08/17 03:38:06;;;;;;;5.88;1.63;;;;;;;;;;4985581;28;98239;-71
2023/08/17 03:40:36;;;;;;;6.50;1.98;;;;;;;;;;4968530;28;101610;-70
2023/08/17 03:43:02;;;;;;;7.55;2.10;;;;;;;;;;4969234;28;98895;-70
2023/08/17 03:45:30;;;;;;;3.40;1.58;;;;;;;;;;4968476;28;98200;-71
2023/08/17 03:47:57;;;;;;;3.83;1.85;;;;;;;;;;4970178;28;98349;-70
2023/08/17 03:50:25;;;;;;;6.18;1.90;;;;;;;;;;4979836;28;99067;-70
2023/08/17 03:52:52;;;;;;;5.18;2.28;;;;;;;;;;5000118;28;99372;-70
2023/08/17 03:55:19;;;;;;;1.83;1.27;;;;;;;;;;4988061;28;98913;-70
2023/08/17 03:57:45;;;;;;;7.43;1.65;;;;;;;;;;4988933;28;98192;-70
2023/08/17 04:00:12;;;;;;;3.03;1.92;;;;;;;;;;4987067;28;100784;-71
2023/08/17 04:02:42;;;;;;;5.70;1.70;;;;;;;;;;4989506;28;98590;-71
2023/08/17 04:05:14;;;;;;;7.05;2.35;;;;;;;;;;4981994;28;98345;-70
2023/08/17 04:07:41;;;;;;;2.75;1.65;;;;;;;;;;4990133;28;99469;-70
2023/08/17 04:10:08;;;;;;;2.97;1.73;;;;;;;;;;4987518;28;100750;-70
2023/08/17 04:12:34;;;;;;;2.70;1.73;;;;;;;;;;4992060;28;98655;-70
2023/08/17 04:15:01;;;;;;;3.30;1.58;;;;;;;;;;4988995;28;99897;-70
2023/08/17 04:17:27;;;;;;;2.58;1.40;;;;;;;;;;4986980;28;98248;-71
2023/08/17 04:19:54;;;;;;;7.82;2.08;;;;;;;;;;4988167;28;101326;-70
2023/08/17 04:22:21;;;;;;;6.15;1.70;;;;;;;;;;4987608;28;99956;-70
2023/08/17 04:24:48;;;;;;;1.88;1.35;;;;;;;;;;4991680;28;98234;-69
2023/08/17 04:27:15;;;;;;;6.50;2.17;;;;;;;;;;5007851;28;98547;-69
2023/08/17 04:29:42;;;;;;;2.55;1.27;;;;;;;;;;5007650;28;101301;-71
2023/08/17 04:32:13;;;;;;;9.43;2.10;;;;;;;;;;5007259;28;98346;-69
2023/08/17 04:34:41;;;;;;;2.20;1.85;;;;;;;;;;5012504;28;98286;-70
2023/08/17 04:37:08;;;;;;;4.10;1.85;;;;;;;;;;5009040;28;98295;-69
2023/08/17 04:39:36;;;;;;;4.95;1.73;;;;;;;;;;5004252;28;99553;-69
2023/08/17 04:42:03;;;;;;;3.08;1.67;;;;;;;;;;4994561;28;101098;-70
2023/08/17 04:44:33;;;;;;;3.08;1.63;;;;;;;;;;5007428;28;98220;-69
2023/08/17 04:47:01;;;;;;;4.50;1.48;;;;;;;;;;5007053;28;98916;-70
2023/08/17 04:49:27;;;;;;;2.08;1.13;;;;;;;;;;5006656;28;99981;-70
2023/08/17 04:51:54;;;;;;;3.67;1.30;;;;;;;;;;5007740;28;98346;-70
2023/08/17 04:54:20;;;;;;;6.40;1.83;;;;;;;;;;5008264;28;98358;-69
2023/08/17 04:56:47;;;;;;;2.55;1.88;;;;;;;;;;5010460;28;100899;-69
2023/08/17 04:59:13;;;;;;;2.10;1.45;;;;;;;;;;5008060;28;98684;-70
2023/08/17 05:01:39;;;;;;;2.25;2.05;;;;;;;;;;5008020;28;98877;-70
2023/08/17 05:04:08;;;;;;;2.95;1.83;;;;;;;;;;5008386;28;98163;-69
2023/08/17 05:06:34;;;;;;;7.03;1.60;;;;;;;;;;4966789;28;100749;-70
2023/08/17 05:09:01;;;;;;;3.58;2.05;;;;;;;;;;4968277;28;98777;-71
2023/08/17 05:11:29;;;;;;;4.93;1.45;;;;;;;;;;4967278;28;98261;-71
2023/08/17 05:13:55;;;;;;;3.67;1.15;;;;;;;;;;4966048;28;101034;-70
2023/08/17 05:16:23;;;;;;;4.70;1.63;;;;;;;;;;4981283;28;100801;-71
2023/08/17 05:18:49;;;;;;;10.20;1.98;;;;;;;;;;4995224;28;98106;-71
2023/08/17 05:21:16;;;;;;;3.45;1.58;;;;;;;;;;4991402;28;98877;-69
2023/08/17 05:23:42;;;;;;;3.00;1.42;;;;;;;;;;4990874;28;98186;-70
2023/08/17 05:26:09;;;;;;;10.35;2.25;;;;;;;;;;4991017;28;98664;-70
2023/08/17 05:28:35;;;;;;;1.33;1.27;;;;;;;;;;4989556;28;100078;-69
2023/08/17 05:31:05;;;;;;;5.97;1.60;;;;;;;;;;4987139;28;98317;-70
2023/08/17 05:33:35;;;;;;;;;;;;;;;;;;4984400;28;99038;-70
2023/08/17 05:36:01;;;;;;;4.57;1.42;;;;;;;;;;4989223;28;110225;-69
2023/08/17 05:38:28;;;;;;;3.42;1.70;;;;;;;;;;4989327;28;98253;-71
2023/08/17 05:40:55;;;;;;;2.58;1.58;;;;;;;;;;4993480;28;100943;-71
2023/08/17 05:43:22;;;;;;;5.85;1.30;;;;;;;;;;4990587;28;98321;-71
2023/08/17 05:45:49;;;;;;;6.60;1.58;;;;;;;;;;4990436;28;100814;-71
2023/08/17 05:48:18;;;;;;;3.55;1.40;;;;;;;;;;4990462;28;100343;-70
2023/08/17 05:50:45;;;;;;;3.75;1.77;;;;;;;;;;5003741;28;98281;-70
2023/08/17 05:53:11;;;;;;;3.35;1.48;;;;;;;;;;5011746;28;99081;-70
2023/08/17 05:55:37;;;;;;;5.43;1.52;;;;;;;;;;5011603;28;98988;-70
2023/08/17 05:58:04;;;;;;;3.67;1.25;;;;;;;;;;5010755;28;98222;-70
2023/08/17 06:00:30;;;;;;;3.83;1.55;;;;;;;;;;5014322;28;99467;-71
2023/08/17 06:03:01;;;;;;;7.25;2.17;;;;;;;;;;5000906;28;98202;-70
2023/08/17 06:05:28;;;;;;;2.40;1.67;;;;;;;;;;4988226;28;99477;-70
2023/08/17 06:07:55;;;;;;;4.40;1.60;;;;;;;;;;4989356;28;100622;-70
2023/08/17 06:10:25;;;;;;;9.52;2.15;;;;;;;;;;4989618;28;98283;-71
2023/08/17 06:12:52;;;;;;;3.03;1.50;;;;;;;;;;4991102;28;100113;-69
2023/08/17 06:15:20;;;;;;;8.90;1.75;;;;;;;;;;4990613;28;100087;-71
2023/08/17 06:17:46;;;;;;;3.50;1.48;;;;;;;;;;4989635;28;98226;-69
2023/08/17 06:20:14;;;;;;;2.63;1.80;;;;;;;;;;4989208;28;98409;-70
2023/08/17 06:22:40;;;;;;;5.80;1.77;;;;;;;;;;4991491;28;100096;-70
2023/08/17 06:25:08;;;;;;;4.00;1.77;;;;;;;;;;4990270;28;98747;-72
2023/08/17 06:27:34;;;;;;;4.00;2.05;;;;;;;;;;4989246;28;100098;-69
2023/08/17 06:30:02;;;;;;;4.20;1.73;;;;;;;;;;4990424;28;98405;-70
2023/08/17 06:32:29;;;;;;;3.90;1.70;;;;;;;;;;4988120;28;98479;-70
2023/08/17 06:34:57;;;;;;;4.20;1.90;;;;;;;;;;4989505;28;98990;-71
2023/08/17 06:37:23;;;;;;;3.80;1.73;;;;;;;;;;4977668;28;98379;-69
2023/08/17 06:39:50;;;;;;;6.18;1.70;;;;;;;;;;4977237;28;99591;-69
2023/08/17 06:42:17;;;;;;;4.57;1.73;;;;;;;;;;4970876;28;98692;-69
2023/08/17 06:44:44;;;;;;;4.47;1.70;;;;;;;;;;4981450;28;98250;-71
2023/08/17 06:47:11;;;;;;;3.28;1.60;;;;;;;;;;4989498;28;99881;-70
2023/08/17 06:49:37;;;;;;;9.07;1.95;;;;;;;;;;4983625;28;98238;-71
2023/08/17 06:52:04;;;;;;;3.65;1.70;;;;;;;;;;4968996;28;98494;-70
2023/08/17 06:54:32;;;;;;;2.15;1.70;;;;;;;;;;4988742;28;99961;-70
2023/08/17 06:57:01;;;;;;;3.28;1.55;;;;;;;;;;4990955;28;98166;-71
2023/08/17 06:59:27;;;;;;;5.10;2.08;;;;;;;;;;4971736;28;99451;-69
2023/08/17 07:01:54;;;;;;;5.10;2.17;;;;;;;;;;4981886;28;99231;-71
2023/08/17 07:04:20;;;;;;;3.90;1.45;;;;;;;;;;4983677;28;98281;-70
2023/08/17 07:06:49;;;;;;;3.95;1.90;;;;;;;;;;4991582;28;99442;-68
2023/08/17 07:09:15;;;;;;;4.97;1.50;;;;;;;;;;4990097;28;98225;-70
2023/08/17 07:11:42;;;;;;;3.80;1.73;;;;;;;;;;4986720;28;99343;-71
2023/08/17 07:14:08;;;;;;;7.22;1.48;;;;;;;;;;4983328;28;100074;-70
2023/08/17 07:16:35;;;;;;;4.15;1.33;;;;;;;;;;4978191;28;98132;-70
2023/08/17 07:19:02;;;;;;;5.00;1.90;;;;;;;;;;4970235;28;99554;-71
2023/08/17 07:21:28;;;;;;;5.30;1.73;;;;;;;;;;4969148;28;100330;-71
2023/08/17 07:23:55;;;;;;;7.72;2.00;;;;;;;;;;4970042;28;98243;-70
2023/08/17 07:26:24;;;;;;;2.72;1.50;;;;;;;;;;4970254;28;100174;-70
2023/08/17 07:28:51;;;;;;;4.65;1.70;;;;;;;;;;4979427;28;99366;-69
2023/08/17 07:31:18;;;;;;;2.50;1.60;;;;;;;;;;4990163;28;98530;-69
2023/08/17 07:33:44;;;;;;;20.13;5.65;;;;;;;;;;4990176;28;99192;-69
2023/08/17 07:36:11;;;;;;;21.85;7.05;;;;;;;;;;4975631;28;98621;-68
2023/08/17 07:38:38;;;;;;;10.07;3.63;;;;;;;;;;4982361;28;98435;-70
2023/08/17 07:41:04;;;;;;;36.28;9.68;;;;;;;;;;4988810;28;99899;-71
2023/08/17 07:43:31;;;;;;;16.73;4.95;;;;;;;;;;4986495;28;99226;-70
2023/08/17 07:45:57;;;;;;;13.27;5.10;;;;;;;;;;4982257;28;98700;-70
2023/08/17 07:48:25;;;;;;;38.30;12.65;;;;;;;;;;4988481;28;99997;-69
2023/08/17 07:50:52;;;;;;;68.10;21.58;;;;;;;;;;4990843;28;98001;-69
2023/08/17 07:53:19;;;;;;;9.32;3.45;;;;;;;;;;4975775;28;99092;-69
2023/08/17 07:55:46;;;;;;;21.98;4.55;;;;;;;;;;4984977;28;98465;-69
2023/08/17 07:58:14;;;;;;;59.45;19.13;;;;;;;;;;4987184;28;99732;-70
2023/08/17 08:00:40;;;;;;;3.97;2.25;;;;;;;;;;4982791;28;99901;-69
2023/08/17 08:03:07;;;;;;;2.55;1.50;;;;;;;;;;4985041;28;98381;-70
2023/08/17 08:05:33;;;;;;;3.13;1.65;;;;;;;;;;4975332;28;99549;-70
2023/08/17 08:08:00;;;;;;;4.88;2.35;;;;;;;;;;4971664;28;99207;-69
2023/08/17 08:10:27;;;;;;;3.50;1.60;;;;;;;;;;4977420;28;99262;-69
2023/08/17 08:12:54;;;;;;;3.08;2.30;;;;;;;;;;4973940;28;99846;-69
2023/08/17 08:15:22;;;;;;;4.45;1.73;;;;;;;;;;4974511;28;98553;-70
2023/08/17 08:17:49;;;;;;;5.45;2.15;;;;;;;;;;4974668;28;99550;-70
2023/08/17 08:20:15;;;;;;;6.43;2.63;;;;;;;;;;4976443;28;99371;-70
2023/08/17 08:22:42;;;;;;;2.90;1.38;;;;;;;;;;4970462;28;99005;-69
2023/08/17 08:25:09;;;;;;;1.90;1.30;;;;;;;;;;4979679;28;99668;-70
2023/08/17 08:27:36;;;;;;;3.53;1.55;;;;;;;;;;4970379;28;98861;-70
2023/08/17 08:30:04;;;;;;;4.95;1.30;;;;;;;;;;4968345;28;98876;-71
2023/08/17 08:32:31;;;;;;;4.00;1.42;;;;;;;;;;4972150;28;99416;-69
2023/08/17 08:34:57;;;;;;;2.03;1.52;;;;;;;;;;4970965;28;99576;-71
2023/08/17 08:37:25;;;;;;;3.63;1.70;;;;;;;;;;4971122;28;100877;-70
2023/08/17 08:39:53;;;;;;;5.45;1.50;;;;;;;;;;4979387;28;99191;-70
2023/08/17 08:42:19;;;;;;;3.50;1.60;;;;;;;;;;4982841;28;98513;-70
2023/08/17 08:44:46;;;;;;;4.57;1.85;;;;;;;;;;4987123;28;99456;-70
2023/08/17 08:47:13;;;;;;;8.73;1.73;;;;;;;;;;4988055;28;98971;-71
2023/08/17 08:49:42;;;;;;;9.45;2.75;;;;;;;;;;4975738;28;99613;-69
2023/08/17 08:52:12;;;;;;;3.97;1.17;;;;;;;;;;4972074;28;99701;-70
2023/08/17 08:54:40;;;;;;;2.95;1.80;;;;;;;;;;4975746;28;99052;-69
2023/08/17 08:57:10;;;;;;;12.63;1.83;;;;;;;;;;4973218;28;99795;-71
2023/08/17 08:59:43;;;;;;;2.50;1.80;;;;;;;;;;4974003;28;99091;-71
2023/08/17 09:02:16;;;;;;;7.20;2.22;;;;;;;;;;4990616;28;98198;-70
2023/08/17 09:04:44;;;;;;;4.57;1.55;;;;;;;;;;4975216;28;98863;-70
2023/08/17 09:07:16;;;;;;;4.93;2.17;;;;;;;;;;4989459;28;100151;-71
2023/08/17 09:09:44;;;;;;;5.53;1.73;;;;;;;;;;4973593;28;98185;-68
2023/08/17 09:12:11;;;;;;;6.43;2.20;;;;;;;;;;4992554;28;98934;-70
2023/08/17 09:14:40;;;;;;;2.63;1.65;;;;;;;;;;4972590;28;99034;-70
2023/08/17 09:17:07;;;;;;;2.15;1.30;;;;;;;;;;4975444;28;98289;-69
2023/08/17 09:19:34;;;;;;;3.05;1.63;;;;;;;;;;4971942;28;98933;-70
2023/08/17 09:22:07;;;;;;;4.40;1.75;;;;;;;;;;4973121;27;98216;-70
2023/08/17 09:24:35;;;;;;;5.22;1.60;;;;;;;;;;4971922;28;99505;-70
2023/08/17 09:27:02;;;;;;;5.28;2.20;;;;;;;;;;4973039;28;99923;-71
2023/08/17 09:29:33;;;;;;;3.25;1.63;;;;;;;;;;4977052;28;98179;-70
2023/08/17 09:32:05;;;;;;;3.70;1.70;;;;;;;;;;4984702;28;99468;-68
2023/08/17 09:34:33;;;;;;;2.95;1.70;;;;;;;;;;4973062;28;98928;-69
2023/08/17 09:37:06;;;;;;;4.53;1.52;;;;;;;;;;4975844;28;98280;-70
2023/08/17 09:39:32;;;;;;;3.03;1.60;;;;;;;;;;4994559;28;98620;-69
2023/08/17 09:41:59;;;;;;;4.97;1.70;;;;;;;;;;4991386;28;98325;-70
2023/08/17 09:44:26;;;;;;;2.22;1.60;;;;;;;;;;4990681;28;99647;-70
2023/08/17 09:46:55;;;;;;;3.83;1.70;;;;;;;;;;4991255;28;99074;-69
2023/08/17 09:49:25;;;;;;;7.88;2.00;;;;;;;;;;4990397;28;98198;-69
2023/08/17 09:51:52;;;;;;;5.80;2.47;;;;;;;;;;4990532;28;98565;-69
2023/08/17 09:54:23;;;;;;;4.45;2.75;;;;;;;;;;4991149;28;99116;-70
2023/08/17 09:56:53;;;;;;;4.28;1.73;;;;;;;;;;4990730;28;98209;-70
2023/08/17 09:59:20;;;;;;;4.53;1.88;;;;;;;;;;4991376;28;100557;-70
2023/08/17 10:01:48;;;;;;;4.13;2.33;;;;;;;;;;4993734;28;98203;-69
2023/08/17 10:04:15;;;;;;;7.88;2.10;;;;;;;;;;4990424;28;99070;-69
2023/08/17 10:06:42;;;;;;;2.65;1.75;;;;;;;;;;4991265;28;99194;-69
2023/08/17 10:09:12;;;;;;;4.80;2.03;;;;;;;;;;4988842;28;98292;-70
2023/08/17 10:11:39;;;;;;;5.93;2.28;;;;;;;;;;4991272;28;98726;-70
2023/08/17 10:14:10;;;;;;;8.05;2.17;;;;;;;;;;4991219;28;99915;-69
2023/08/17 10:16:49;;;;;;;1.77;1.65;;;;;;;;;;4990502;28;98089;-70
2023/08/17 10:19:34;;;;;;;3.58;1.50;;;;;;;;;;4990795;28;99920;-70
2023/08/17 10:22:07;;;;;;;2.38;1.58;;;;;;;;;;4994447;28;98876;-70
2023/08/17 10:24:36;;;;;;;3.65;1.60;;;;;;;;;;4990388;28;98407;-70
2023/08/17 10:27:03;;;;;;;4.80;2.50;;;;;;;;;;4991148;28;99900;-69
2023/08/17 10:29:30;;;;;;;4.95;2.25;;;;;;;;;;4990258;28;98492;-71
2023/08/17 10:31:57;;;;;;;4.07;2.70;;;;;;;;;;4989296;28;99738;-70
2023/08/17 10:34:24;;;;;;;9.80;1.75;;;;;;;;;;4989845;28;99066;-70
2023/08/17 10:36:50;;;;;;;7.68;2.50;;;;;;;;;;4991077;28;98241;-70
2023/08/17 10:39:17;;;;;;;6.18;2.38;;;;;;;;;;4989786;28;98693;-69
2023/08/17 10:41:48;;;;;;;6.38;1.80;;;;;;;;;;4990836;28;100136;-70
2023/08/17 10:44:14;;;;;;;3.95;2.47;;;;;;;;;;4993186;28;98709;-70
2023/08/17 10:46:43;;;;;;;4.30;2.30;;;;;;;;;;4990567;28;100105;-69
2023/08/17 10:49:25;;;;;;;7.78;1.73;;;;;;;;;;4990820;28;98301;-70
2023/08/17 10:52:04;;;;;;;5.18;2.15;;;;;;;;;;4990523;28;98552;-70
2023/08/17 10:54:38;;;;;;;4.10;1.73;;;;;;;;;;4989965;28;99879;-70
2023/08/17 10:57:22;;;;;;;10.38;2.70;;;;;;;;;;4990365;28;98319;-71
2023/08/17 11:00:07;;;;;;;6.45;2.35;;;;;;;;;;4988990;28;99456;-69
2023/08/17 11:02:34;;;;;;;3.70;2.10;;;;;;;;;;4990147;28;100222;-69
2023/08/17 11:05:03;;;;;;;5.80;2.25;;;;;;;;;;4990907;28;98241;-70
2023/08/17 11:07:45;;;;;;;7.78;2.63;;;;;;;;;;4992498;28;99903;-69
2023/08/17 11:10:26;;;;;;;9.38;3.30;;;;;;;;;;4989457;28;98405;-69
2023/08/17 11:12:56;;;;;;;8.55;2.25;;;;;;;;;;4989077;28;98511;-69
2023/08/17 11:15:23;;;;;;;2.95;2.13;;;;;;;;;;4989771;28;99056;-69
2023/08/17 11:17:50;;;;;;;8.63;4.22;;;;;;;;;;4990282;28;98196;-71
2023/08/17 11:20:18;;;;;;;3.35;2.00;;;;;;;;;;4988817;28;98500;-71
2023/08/17 11:22:45;;;;;;;4.50;2.03;;;;;;;;;;4990490;28;99480;-72
2023/08/17 11:25:12;;;;;;;4.20;2.45;;;;;;;;;;4969488;28;98541;-69
2023/08/17 11:27:39;;;;;;;3.65;1.88;;;;;;;;;;4970112;28;98820;-71
2023/08/17 11:30:06;;;;;;;10.25;2.45;;;;;;;;;;4973759;28;99259;-69
2023/08/17 11:32:32;;;;;;;2.40;2.20;;;;;;;;;;4970797;28;99593;-69
2023/08/17 11:34:59;;;;;;;5.43;2.22;;;;;;;;;;4969264;28;100038;-70
2023/08/17 11:37:25;;;;;;;3.80;2.70;;;;;;;;;;4975336;28;98252;-69
2023/08/17 11:39:52;;;;;;;3.75;2.00;;;;;;;;;;4990299;28;98748;-70
2023/08/17 11:42:18;;;;;;;3.78;2.38;;;;;;;;;;4989536;28;99028;-69
2023/08/17 11:44:45;;;;;;;2.20;2.00;;;;;;;;;;4989146;28;98259;-70
2023/08/17 11:47:12;;;;;;;7.22;2.72;;;;;;;;;;4989901;28;98692;-70
2023/08/17 11:49:38;;;;;;;8.98;2.30;;;;;;;;;;4988089;28;99133;-71
2023/08/17 11:52:08;;;;;;;7.20;2.55;;;;;;;;;;4991707;28;98226;-69
2023/08/17 11:54:39;;;;;;;9.38;2.95;;;;;;;;;;4988404;28;99114;-70
2023/08/17 11:57:06;;;;;;;4.82;2.55;;;;;;;;;;4989606;28;98255;-71
2023/08/17 11:59:33;;;;;;;4.43;2.78;;;;;;;;;;4989231;28;98833;-70
2023/08/17 12:02:00;;;;;;;9.20;2.67;;;;;;;;;;4988967;28;99002;-69
2023/08/17 12:04:27;;;;;;;5.03;2.90;;;;;;;;;;4989264;28;98143;-70
2023/08/17 12:06:54;;;;;;;4.32;2.75;;;;;;;;;;4989700;28;99682;-70
2023/08/17 12:09:21;;;;;;;3.42;2.40;;;;;;;;;;4987814;28;99064;-71
2023/08/17 12:11:47;;;;;;;7.47;2.45;;;;;;;;;;4992714;28;98162;-70
2023/08/17 12:14:14;;;;;;;5.35;2.40;;;;;;;;;;4988179;28;98948;-70
2023/08/17 12:16:48;;;;;;;6.97;3.20;;;;;;;;;;4988208;28;98272;-70
2023/08/17 12:19:14;;;;;;;3.28;2.72;;;;;;;;;;4989141;28;98831;-70
2023/08/17 12:21:42;;;;;;;5.53;2.88;;;;;;;;;;4989827;28;99119;-69
2023/08/17 12:24:09;;;;;;;4.00;2.00;;;;;;;;;;4988975;28;98365;-69
2023/08/17 12:26:35;;;;;;;3.50;1.98;;;;;;;;;;4988096;28;99385;-70
2023/08/17 12:29:04;;;;;;;4.80;2.10;;;;;;;;;;4989571;28;99289;-69
2023/08/17 12:31:31;;;;;;;2.67;2.22;;;;;;;;;;4988593;28;98285;-69
2023/08/17 12:33:57;;;;;;;4.50;2.78;;;;;;;;;;4992321;28;98766;-70
2023/08/17 12:36:24;;;;;;;3.40;2.53;;;;;;;;;;4988933;28;98262;-69
2023/08/17 12:38:50;;;;;;;5.20;2.88;;;;;;;;;;4987473;28;98621;-70
2023/08/17 12:41:17;;;;;;;5.43;2.53;;;;;;;;;;4988413;28;99830;-69
2023/08/17 12:43:44;;;;;;;3.67;2.50;;;;;;;;;;4988762;28;98256;-70
2023/08/17 12:46:13;;;;;;;7.05;2.95;;;;;;;;;;4988997;28;98598;-70
2023/08/17 12:48:41;;;;;;;4.80;2.50;;;;;;;;;;4988807;28;98953;-70
2023/08/17 12:51:07;;;;;;;2.80;2.40;;;;;;;;;;4987754;28;98337;-70
2023/08/17 12:53:35;;;;;;;8.15;2.53;;;;;;;;;;4988389;28;99448;-69
2023/08/17 12:56:01;;;;;;;3.60;2.15;;;;;;;;;;4992368;28;98905;-69
2023/08/17 12:58:27;;;;;;;4.68;2.45;;;;;;;;;;4987596;28;98497;-69
2023/08/17 13:00:54;;;;;;;5.18;2.80;;;;;;;;;;4988292;28;99129;-70
2023/08/17 13:03:21;;;;;;;3.92;2.67;;;;;;;;;;4987589;28;98238;-70
2023/08/17 13:05:47;;;;;;;3.13;2.55;;;;;;;;;;4987874;28;98255;-70
2023/08/17 13:08:14;;;;;;;4.38;2.30;;;;;;;;;;4988083;28;99866;-70
2023/08/17 13:10:41;;;;;;;2.60;2.20;;;;;;;;;;4988838;28;98229;-70
2023/08/17 13:13:08;;;;;;;4.32;2.33;;;;;;;;;;4988021;28;99965;-71
2023/08/17 13:15:34;;;;;;;4.50;2.13;;;;;;;;;;4987398;28;99139;-69
2023/08/17 13:18:01;;;;;;;4.95;2.15;;;;;;;;;;4991926;28;99415;-70
2023/08/17 13:20:27;;;;;;;6.32;2.38;;;;;;;;;;4988107;28;98898;-71
2023/08/17 13:22:54;;;;;;;6.72;2.25;;;;;;;;;;4988945;28;98279;-70
2023/08/17 13:25:20;;;;;;;3.25;2.35;;;;;;;;;;4974559;28;98482;-69
2023/08/17 13:27:46;;;;;;;3.47;2.40;;;;;;;;;;4967658;28;98907;-69
2023/08/17 13:30:13;;;;;;;4.93;2.20;;;;;;;;;;4967700;28;98258;-69
2023/08/17 13:32:41;;;;;;;3.35;2.33;;;;;;;;;;4968592;28;98427;-69
2023/08/17 13:35:10;;;;;;;2.65;2.45;;;;;;;;;;4968148;28;98905;-69
2023/08/17 13:37:37;;;;;;;2.75;2.08;;;;;;;;;;4971348;28;98280;-70
2023/08/17 13:40:03;;;;;;;4.13;2.15;;;;;;;;;;4993945;28;98514;-70
2023/08/17 13:42:30;;;;;;;6.55;2.45;;;;;;;;;;4991439;28;98088;-70
2023/08/17 13:44:56;;;;;;;3.47;2.20;;;;;;;;;;4991682;28;98740;-70
2023/08/17 13:47:23;;;;;;;2.70;2.20;;;;;;;;;;4990690;28;99842;-70
2023/08/17 13:49:49;;;;;;;2.75;1.60;;;;;;;;;;4991711;28;98583;-68
2023/08/17 13:52:16;;;;;;;1.98;1.80;;;;;;;;;;4990894;28;98939;-70
2023/08/17 13:54:42;;;;;;;3.55;2.00;;;;;;;;;;4990019;28;98852;-70
2023/08/17 13:57:08;;;;;;;4.38;2.22;;;;;;;;;;4991304;28;98293;-71
2023/08/17 13:59:35;;;;;;;3.42;1.90;;;;;;;;;;4991053;28;98101;-70
2023/08/17 14:02:01;;;;;;;2.38;1.80;;;;;;;;;;4993529;28;98975;-69
2023/08/17 14:04:28;;;;;;;5.07;3.55;;;;;;;;;;4990846;28;99669;-69
2023/08/17 14:06:55;;;;;;;5.25;2.13;;;;;;;;;;4991300;28;98901;-70
2023/08/17 14:09:22;;;;;;;2.28;1.73;;;;;;;;;;4989483;28;98277;-70
2023/08/17 14:11:48;;;;;;;2.10;1.88;;;;;;;;;;4991995;28;98514;-70
2023/08/17 14:14:14;;;;;;;4.78;1.90;;;;;;;;;;4990863;28;99050;-69
2023/08/17 14:16:42;;;;;;;4.38;2.15;;;;;;;;;;4989995;28;98974;-69
2023/08/17 14:19:08;;;;;;;2.58;2.00;;;;;;;;;;4991176;28;98509;-70
2023/08/17 14:21:35;;;;;;;3.72;2.03;;;;;;;;;;4994442;28;99165;-70
2023/08/17 14:24:01;;;;;;;2.25;2.10;;;;;;;;;;4990490;28;98985;-69
2023/08/17 14:26:27;;;;;;;3.95;2.22;;;;;;;;;;4990764;28;100015;-69
2023/08/17 14:28:57;;;;;;;3.58;2.90;;;;;;;;;;4991093;28;98244;-69
2023/08/17 14:31:23;;;;;;;2.97;2.40;;;;;;;;;;4991035;28;98649;-69
2023/08/17 14:33:50;;;;;;;7.57;2.38;;;;;;;;;;4990907;28;100117;-69
2023/08/17 14:36:16;;;;;;;7.70;2.45;;;;;;;;;;4989865;28;98232;-69
2023/08/17 14:38:46;;;;;;;4.20;2.78;;;;;;;;;;4990956;28;98994;-69
2023/08/17 14:41:13;;;;;;;4.80;3.15;;;;;;;;;;4990021;28;99235;-69
2023/08/17 14:43:39;;;;;;;6.10;3.65;;;;;;;;;;4993279;28;98206;-69